sensor_id;sensor_type;location;lat;lon;timestamp;pressure;altitude;pressure_sealevel;temperature;humidity
40574;BME280;26283;49.020;8.644;2023-04-05T00:02:22;99882.62;;;11.05;48.24
40574;BME280;26283;49.020;8.644;2023-04-05T00:04:48;99874.53;;;11.05;48.33
40574;BME280;26283;49.020;8.644;2023-04-05T00:07:22;99875.59;;;11.04;48.31
40574;BME280;26283;49.020;8.644;2023-04-05T00:09:48;99865.00;;;11.02;48.17
40574;BME280;26283;49.020;8.644;2023-04-05T00:12:14;99878.28;;;11.04;48.25
40574;BME280;26283;49.020;8.644;2023-04-05T00:14:39;99876.84;;;11.01;48.31
40574;BME280;26283;49.020;8.644;2023-04-05T00:17:05;99870.63;;;11.01;48.31
40574;BME280;26283;49.020;8.644;2023-04-05T00:19:31;99871.66;;;10.99;48.35
40574;BME280;26283;49.020;8.644;2023-04-05T00:21:58;99868.94;;;10.99;48.32
40574;BME280;26283;49.020;8.644;2023-04-05T00:24:24;99865.63;;;10.97;48.31
40574;BME280;26283;49.020;8.644;2023-04-05T00:26:49;99861.25;;;10.96;48.31
40574;BME280;26283;49.020;8.644;2023-04-05T00:29:15;99850.69;;;10.95;48.29
40574;BME280;26283;49.020;8.644;2023-04-05T00:31:40;99845.28;;;10.95;48.34
40574;BME280;26283;49.020;8.644;2023-04-05T00:34:06;99847.16;;;10.94;48.32
40574;BME280;26283;49.020;8.644;2023-04-05T00:36:33;99849.22;;;10.92;48.31
40574;BME280;26283;49.020;8.644;2023-04-05T00:38:59;99850.06;;;10.93;48.37
40574;BME280;26283;49.020;8.644;2023-04-05T00:41:25;99843.22;;;10.90;48.41
40574;BME280;26283;49.020;8.644;2023-04-05T00:43:50;99844.03;;;10.91;48.41
40574;BME280;26283;49.020;8.644;2023-04-05T00:46:16;99846.94;;;10.89;48.41
40574;BME280;26283;49.020;8.644;2023-04-05T00:48:41;99845.28;;;10.88;48.42
40574;BME280;26283;49.020;8.644;2023-04-05T00:51:09;99839.06;;;10.88;48.42
40574;BME280;26283;49.020;8.644;2023-04-05T00:53:36;99844.44;;;10.88;48.53
40574;BME280;26283;49.020;8.644;2023-04-05T00:56:02;99840.28;;;10.85;48.46
40574;BME280;26283;49.020;8.644;2023-04-05T00:58:31;99835.72;;;10.86;48.51
40574;BME280;26283;49.020;8.644;2023-04-05T01:01:15;99832.41;;;10.84;48.43
40574;BME280;26283;49.020;8.644;2023-04-05T01:03:48;99829.94;;;10.82;48.47
40574;BME280;26283;49.020;8.644;2023-04-05T01:12:18;99828.50;;;10.80;48.62
40574;BME280;26283;49.020;8.644;2023-04-05T01:14:47;99827.88;;;10.78;48.49
40574;BME280;26283;49.020;8.644;2023-04-05T01:17:14;99815.41;;;10.77;48.50
40574;BME280;26283;49.020;8.644;2023-04-05T01:19:40;99824.34;;;10.77;48.45
40574;BME280;26283;49.020;8.644;2023-04-05T01:22:48;99818.31;;;10.75;48.56
40574;BME280;26283;49.020;8.644;2023-04-05T01:33:48;99810.84;;;10.71;49.00
40574;BME280;26283;49.020;8.644;2023-04-05T01:38:45;99805.66;;;10.69;48.50
40574;BME280;26283;49.020;8.644;2023-04-05T01:41:13;99795.91;;;10.68;48.67
40574;BME280;26283;49.020;8.644;2023-04-05T01:43:39;99799.62;;;10.67;48.64
40574;BME280;26283;49.020;8.644;2023-04-05T01:46:04;99798.81;;;10.67;48.68
40574;BME280;26283;49.020;8.644;2023-04-05T01:48:30;99805.03;;;10.67;48.74
40574;BME280;26283;49.020;8.644;2023-04-05T01:50:55;99802.53;;;10.65;48.74
40574;BME280;26283;49.020;8.644;2023-04-05T01:53:21;99794.66;;;10.64;48.62
40574;BME280;26283;49.020;8.644;2023-04-05T01:55:46;99802.75;;;10.64;48.69
40574;BME280;26283;49.020;8.644;2023-04-05T01:58:11;99791.34;;;10.62;48.74
40574;BME280;26283;49.020;8.644;2023-04-05T02:00:37;99796.72;;;10.62;48.69
40574;BME280;26283;49.020;8.644;2023-04-05T02:03:02;99792.38;;;10.61;48.70
40574;BME280;26283;49.020;8.644;2023-04-05T02:05:27;99794.25;;;10.60;48.74
40574;BME280;26283;49.020;8.644;2023-04-05T02:07:53;99788.03;;;10.60;48.83
40574;BME280;26283;49.020;8.644;2023-04-05T02:10:18;99793.44;;;10.60;48.78
40574;BME280;26283;49.020;8.644;2023-04-05T02:12:44;99790.94;;;10.58;48.82
40574;BME280;26283;49.020;8.644;2023-04-05T02:15:10;99792.81;;;10.58;48.81
40574;BME280;26283;49.020;8.644;2023-04-05T02:17:36;99792.81;;;10.58;48.80
40574;BME280;26283;49.020;8.644;2023-04-05T02:20:09;99792.19;;;10.56;48.83
40574;BME280;26283;49.020;8.644;2023-04-05T02:22:37;99788.66;;;10.55;48.68
40574;BME280;26283;49.020;8.644;2023-04-05T02:25:04;99784.50;;;10.53;48.74
40574;BME280;26283;49.020;8.644;2023-04-05T02:27:31;99787.19;;;10.53;48.90
40574;BME280;26283;49.020;8.644;2023-04-05T02:29:56;99778.28;;;10.52;48.88
40574;BME280;26283;49.020;8.644;2023-04-05T02:32:22;99775.78;;;10.51;48.87
40574;BME280;26283;49.020;8.644;2023-04-05T02:34:48;99777.66;;;10.50;48.90
40574;BME280;26283;49.020;8.644;2023-04-05T02:37:14;99779.50;;;10.50;49.03
40574;BME280;26283;49.020;8.644;2023-04-05T02:39:40;99772.47;;;10.49;48.94
40574;BME280;26283;49.020;8.644;2023-04-05T02:42:05;99778.06;;;10.47;48.95
40574;BME280;26283;49.020;8.644;2023-04-05T02:44:31;99778.06;;;10.47;49.00
40574;BME280;26283;49.020;8.644;2023-04-05T02:46:56;99771.84;;;10.47;48.93
40574;BME280;26283;49.020;8.644;2023-04-05T02:49:21;99772.87;;;10.46;49.03
40574;BME280;26283;49.020;8.644;2023-04-05T02:51:47;99769.56;;;10.44;49.01
40574;BME280;26283;49.020;8.644;2023-04-05T02:54:12;99775.97;;;10.43;49.03
40574;BME280;26283;49.020;8.644;2023-04-05T02:56:37;99768.72;;;10.43;48.89
40574;BME280;26283;49.020;8.644;2023-04-05T02:59:03;99772.44;;;10.42;48.83
40574;BME280;26283;49.020;8.644;2023-04-05T03:01:28;99767.25;;;10.41;48.92
40574;BME280;26283;49.020;8.644;2023-04-05T03:03:54;99772.66;;;10.41;48.95
40574;BME280;26283;49.020;8.644;2023-04-05T03:06:21;99772.06;;;10.39;48.90
40574;BME280;26283;49.020;8.644;2023-04-05T03:08:46;99773.91;;;10.38;48.96
40574;BME280;26283;49.020;8.644;2023-04-05T03:11:13;99772.06;;;10.39;48.87
40574;BME280;26283;49.020;8.644;2023-04-05T03:13:39;99772.25;;;10.37;48.91
40574;BME280;26283;49.020;8.644;2023-04-05T03:16:05;99766.03;;;10.37;48.86
40574;BME280;26283;49.020;8.644;2023-04-05T03:18:31;99768.09;;;10.35;48.89
40574;BME280;26283;49.020;8.644;2023-04-05T03:20:57;99769.12;;;10.34;48.91
40574;BME280;26283;49.020;8.644;2023-04-05T03:23:24;99772.66;;;10.34;48.78
40574;BME280;26283;49.020;8.644;2023-04-05T03:25:53;99770.16;;;10.33;48.76
40574;BME280;26283;49.020;8.644;2023-04-05T03:28:20;99770.16;;;10.33;48.70
40574;BME280;26283;49.020;8.644;2023-04-05T03:30:47;99768.50;;;10.32;48.79
40574;BME280;26283;49.020;8.644;2023-04-05T03:33:13;99765.19;;;10.29;48.77
40574;BME280;26283;49.020;8.644;2023-04-05T03:35:38;99767.06;;;10.29;48.77
40574;BME280;26283;49.020;8.644;2023-04-05T03:38:03;99768.28;;;10.26;48.88
40574;BME280;26283;49.020;8.644;2023-04-05T03:40:30;99772.66;;;10.27;48.83
40574;BME280;26283;49.020;8.644;2023-04-05T03:42:55;99766.63;;;10.25;48.93
40574;BME280;26283;49.020;8.644;2023-04-05T03:45:20;99772.00;;;10.25;48.93
40574;BME280;26283;49.020;8.644;2023-04-05T03:47:46;99767.66;;;10.24;48.95
40574;BME280;26283;49.020;8.644;2023-04-05T03:50:11;99768.69;;;10.23;48.99
40574;BME280;26283;49.020;8.644;2023-04-05T03:52:36;99758.94;;;10.22;48.91
40574;BME280;26283;49.020;8.644;2023-04-05T03:55:02;99769.09;;;10.20;49.01
40574;BME280;26283;49.020;8.644;2023-04-05T03:57:28;99764.75;;;10.19;49.09
40574;BME280;26283;49.020;8.644;2023-04-05T03:59:54;99762.88;;;10.20;49.10
40574;BME280;26283;49.020;8.644;2023-04-05T04:02:20;99756.66;;;10.19;49.05
40574;BME280;26283;49.020;8.644;2023-04-05T04:04:45;99756.03;;;10.17;49.09
40574;BME280;26283;49.020;8.644;2023-04-05T04:07:11;99758.72;;;10.17;48.99
40574;BME280;26283;49.020;8.644;2023-04-05T04:09:37;99758.94;;;10.16;49.04
40574;BME280;26283;49.020;8.644;2023-04-05T04:12:02;99759.13;;;10.14;48.99
40574;BME280;26283;49.020;8.644;2023-04-05T04:14:28;99761.81;;;10.14;49.08
40574;BME280;26283;49.020;8.644;2023-04-05T04:16:53;99759.31;;;10.13;49.01
40574;BME280;26283;49.020;8.644;2023-04-05T04:19:18;99756.84;;;10.11;49.05
40574;BME280;26283;49.020;8.644;2023-04-05T04:21:44;99763.06;;;10.12;49.01
40574;BME280;26283;49.020;8.644;2023-04-05T04:24:17;99764.09;;;10.11;49.11
40574;BME280;26283;49.020;8.644;2023-04-05T04:26:45;99763.25;;;10.10;49.04
40574;BME280;26283;49.020;8.644;2023-04-05T04:29:11;99771.34;;;10.10;49.08
40574;BME280;26283;49.020;8.644;2023-04-05T04:31:42;99771.53;;;10.09;48.99
40574;BME280;26283;49.020;8.644;2023-04-05T04:34:13;99763.66;;;10.07;49.12
40574;BME280;26283;49.020;8.644;2023-04-05T04:36:39;99765.53;;;10.07;49.06
40574;BME280;26283;49.020;8.644;2023-04-05T04:39:07;99770.06;;;10.06;49.12
40574;BME280;26283;49.020;8.644;2023-04-05T04:41:34;99769.44;;;10.04;49.10
40574;BME280;26283;49.020;8.644;2023-04-05T04:44:02;99770.28;;;10.05;49.18
40574;BME280;26283;49.020;8.644;2023-04-05T04:46:29;99766.94;;;10.03;49.18
40574;BME280;26283;49.020;8.644;2023-04-05T04:48:59;99764.25;;;10.03;49.13
40574;BME280;26283;49.020;8.644;2023-04-05T04:51:25;99758.88;;;10.03;49.19
40574;BME280;26283;49.020;8.644;2023-04-05T04:53:51;99756.38;;;10.01;49.13
40574;BME280;26283;49.020;8.644;2023-04-05T04:56:16;99754.91;;;9.98;49.15
40574;BME280;26283;49.020;8.644;2023-04-05T04:58:42;99761.34;;;9.97;49.19
40574;BME280;26283;49.020;8.644;2023-04-05T05:01:07;99771.28;;;9.97;49.14
40574;BME280;26283;49.020;8.644;2023-04-05T05:03:36;99769.62;;;9.96;49.15
40574;BME280;26283;49.020;8.644;2023-04-05T05:06:03;99770.69;;;9.95;49.21
40574;BME280;26283;49.020;8.644;2023-04-05T05:08:29;99770.69;;;9.95;49.22
40574;BME280;26283;49.020;8.644;2023-04-05T05:10:54;99774.41;;;9.94;49.31
40574;BME280;26283;49.020;8.644;2023-04-05T05:13:20;99771.72;;;9.94;49.23
40574;BME280;26283;49.020;8.644;2023-04-05T05:15:45;99765.69;;;9.92;49.22
40574;BME280;26283;49.020;8.644;2023-04-05T05:18:10;99771.28;;;9.90;49.24
40574;BME280;26283;49.020;8.644;2023-04-05T05:20:36;99776.66;;;9.90;49.17
40574;BME280;26283;49.020;8.644;2023-04-05T05:23:02;99779.56;;;9.89;49.23
40574;BME280;26283;49.020;8.644;2023-04-05T05:25:29;99779.56;;;9.89;49.23
40574;BME280;26283;49.020;8.644;2023-04-05T05:27:55;99775.19;;;9.88;49.25
40574;BME280;26283;49.020;8.644;2023-04-05T05:30:20;99781.63;;;9.87;49.21
40574;BME280;26283;49.020;8.644;2023-04-05T05:32:46;99777.25;;;9.86;49.24
40574;BME280;26283;49.020;8.644;2023-04-05T05:35:11;99789.06;;;9.85;49.24
40574;BME280;26283;49.020;8.644;2023-04-05T05:37:37;99782.00;;;9.84;49.32
40574;BME280;26283;49.020;8.644;2023-04-05T05:40:03;99781.19;;;9.83;49.43
40574;BME280;26283;49.020;8.644;2023-04-05T05:42:29;99777.03;;;9.81;49.45
40574;BME280;26283;49.020;8.644;2023-04-05T05:44:58;99785.94;;;9.81;49.47
40574;BME280;26283;49.020;8.644;2023-04-05T05:47:24;99788.81;;;9.80;49.47
40574;BME280;26283;49.020;8.644;2023-04-05T05:49:49;99791.50;;;9.80;49.55
40574;BME280;26283;49.020;8.644;2023-04-05T05:52:15;99793.19;;;9.81;49.49
40574;BME280;26283;49.020;8.644;2023-04-05T05:54:40;99790.69;;;9.79;49.55
40574;BME280;26283;49.020;8.644;2023-04-05T05:57:06;99783.62;;;9.78;49.50
40574;BME280;26283;49.020;8.644;2023-04-05T05:59:31;99790.03;;;9.77;49.50
40574;BME280;26283;49.020;8.644;2023-04-05T06:01:56;99791.91;;;9.77;49.61
40574;BME280;26283;49.020;8.644;2023-04-05T06:04:22;99788.59;;;9.75;49.62
40574;BME280;26283;49.020;8.644;2023-04-05T06:06:47;99798.56;;;9.74;49.71
40574;BME280;26283;49.020;8.644;2023-04-05T06:09:13;99798.56;;;9.74;49.74
40574;BME280;26283;49.020;8.644;2023-04-05T06:11:41;99798.75;;;9.73;49.80
40574;BME280;26283;49.020;8.644;2023-04-05T06:14:07;99801.44;;;9.73;49.83
40574;BME280;26283;49.020;8.644;2023-04-05T06:16:32;99802.47;;;9.72;49.90
40574;BME280;26283;49.020;8.644;2023-04-05T06:18:59;99799.78;;;9.72;49.92
40574;BME280;26283;49.020;8.644;2023-04-05T06:21:25;99795.44;;;9.71;49.95
40574;BME280;26283;49.020;8.644;2023-04-05T06:23:51;99803.50;;;9.71;49.91
40574;BME280;26283;49.020;8.644;2023-04-05T06:26:20;99790.03;;;9.71;49.90
40574;BME280;26283;49.020;8.644;2023-04-05T06:28:49;99794.59;;;9.70;49.90
40574;BME280;26283;49.020;8.644;2023-04-05T06:31:15;99795.44;;;9.71;49.84
40574;BME280;26283;49.020;8.644;2023-04-05T06:33:42;99796.44;;;9.70;49.91
40574;BME280;26283;49.020;8.644;2023-04-05T06:36:07;99799.12;;;9.70;49.86
40574;BME280;26283;49.020;8.644;2023-04-05T06:38:33;99798.13;;;9.71;49.88
40574;BME280;26283;49.020;8.644;2023-04-05T06:40:58;99797.28;;;9.70;49.90
40574;BME280;26283;49.020;8.644;2023-04-05T06:43:23;99793.75;;;9.70;49.76
40574;BME280;26283;49.020;8.644;2023-04-05T06:45:49;99791.06;;;9.70;49.81
40574;BME280;26283;49.020;8.644;2023-04-05T06:48:15;99796.44;;;9.70;49.86
40574;BME280;26283;49.020;8.644;2023-04-05T06:50:40;99795.44;;;9.71;49.83
40574;BME280;26283;49.020;8.644;2023-04-05T06:53:05;99785.69;;;9.70;49.81
40574;BME280;26283;49.020;8.644;2023-04-05T06:55:32;99790.88;;;9.71;49.87
40574;BME280;26283;49.020;8.644;2023-04-05T06:57:57;99789.00;;;9.72;49.92
40574;BME280;26283;49.020;8.644;2023-04-05T07:00:23;99786.53;;;9.70;49.93
40574;BME280;26283;49.020;8.644;2023-04-05T07:02:48;99793.38;;;9.73;49.91
40574;BME280;26283;49.020;8.644;2023-04-05T07:05:14;99793.38;;;9.73;49.90
40574;BME280;26283;49.020;8.644;2023-04-05T07:07:40;99789.66;;;9.74;49.95
40574;BME280;26283;49.020;8.644;2023-04-05T07:10:07;99792.34;;;9.74;50.01
40574;BME280;26283;49.020;8.644;2023-04-05T07:12:33;99792.09;;;9.75;49.93
40574;BME280;26283;49.020;8.644;2023-04-05T07:14:58;99790.88;;;9.78;49.90
40574;BME280;26283;49.020;8.644;2023-04-05T07:17:24;99791.50;;;9.80;49.96
40574;BME280;26283;49.020;8.644;2023-04-05T07:19:49;99792.53;;;9.79;49.81
40574;BME280;26283;49.020;8.644;2023-04-05T07:22:15;99790.47;;;9.81;49.81
40574;BME280;26283;49.020;8.644;2023-04-05T07:24:40;99791.31;;;9.81;49.84
40574;BME280;26283;49.020;8.644;2023-04-05T07:27:06;99784.06;;;9.82;49.73
40574;BME280;26283;49.020;8.644;2023-04-05T07:29:31;99784.69;;;9.84;49.79
40574;BME280;26283;49.020;8.644;2023-04-05T07:31:59;99777.47;;;9.84;49.78
40574;BME280;26283;49.020;8.644;2023-04-05T07:34:24;99784.50;;;9.85;49.75
40574;BME280;26283;49.020;8.644;2023-04-05T07:36:51;99782.44;;;9.87;49.77
40574;BME280;26283;49.020;8.644;2023-04-05T07:39:16;99784.94;;;9.89;49.64
40574;BME280;26283;49.020;8.644;2023-04-05T07:41:42;99786.59;;;9.90;49.58
40574;BME280;26283;49.020;8.644;2023-04-05T07:44:08;99780.19;;;9.91;49.49
40574;BME280;26283;49.020;8.644;2023-04-05T07:46:33;99788.69;;;9.94;49.40
40574;BME280;26283;49.020;8.644;2023-04-05T07:48:59;99794.91;;;9.95;49.26
40574;BME280;26283;49.020;8.644;2023-04-05T07:51:24;99813.31;;;9.98;49.70
40574;BME280;26283;49.020;8.644;2023-04-05T07:53:51;99811.25;;;10.00;50.76
40574;BME280;26283;49.020;8.644;2023-04-05T07:56:16;99812.53;;;10.04;51.03
40574;BME280;26283;49.020;8.644;2023-04-05T07:58:42;99808.59;;;10.07;51.17
40574;BME280;26283;49.020;8.644;2023-04-05T08:01:09;99813.59;;;10.10;51.23
40574;BME280;26283;49.020;8.644;2023-04-05T08:03:36;99811.53;;;10.12;51.32
40574;BME280;26283;49.020;8.644;2023-04-05T08:06:13;99813.00;;;10.14;51.36
40574;BME280;26283;49.020;8.644;2023-04-05T08:08:42;99811.75;;;10.17;51.39
40574;BME280;26283;49.020;8.644;2023-04-05T08:11:07;99817.78;;;10.19;51.46
40574;BME280;26283;49.020;8.644;2023-04-05T08:13:33;99821.09;;;10.21;51.52
40574;BME280;26283;49.020;8.644;2023-04-05T08:15:59;99820.06;;;10.22;51.54
40574;BME280;26283;49.020;8.644;2023-04-05T08:18:27;99822.38;;;10.25;51.53
40574;BME280;26283;49.020;8.644;2023-04-05T08:20:53;99823.00;;;10.27;51.54
40574;BME280;26283;49.020;8.644;2023-04-05T08:23:19;99819.69;;;10.32;51.56
40574;BME280;26283;49.020;8.644;2023-04-05T08:25:44;99820.31;;;10.34;51.58
40574;BME280;26283;49.020;8.644;2023-04-05T08:28:10;99827.19;;;10.36;51.62
40574;BME280;26283;49.020;8.644;2023-04-05T08:30:35;99821.59;;;10.38;51.62
40574;BME280;26283;49.020;8.644;2023-04-05T08:33:01;99811.19;;;10.41;51.57
40574;BME280;26283;49.020;8.644;2023-04-05T08:35:27;99810.81;;;10.44;51.59
40574;BME280;26283;49.020;8.644;2023-04-05T08:37:52;99808.94;;;10.45;51.58
40574;BME280;26283;49.020;8.644;2023-04-05T08:40:17;99805.84;;;10.48;51.58
40574;BME280;26283;49.020;8.644;2023-04-05T08:42:53;99805.44;;;10.51;51.58
40574;BME280;26283;49.020;8.644;2023-04-05T08:45:20;99805.22;;;10.52;51.47
40574;BME280;26283;49.020;8.644;2023-04-05T08:47:48;99808.16;;;10.57;51.54
40574;BME280;26283;49.020;8.644;2023-04-05T08:50:14;99807.94;;;10.59;51.59
40574;BME280;26283;49.020;8.644;2023-04-05T08:52:39;99808.53;;;10.61;51.71
40574;BME280;26283;49.020;8.644;2023-04-05T08:55:07;99804.59;;;10.63;51.74
40574;BME280;26283;49.020;8.644;2023-04-05T08:57:36;99804.19;;;10.67;51.74
40574;BME280;26283;49.020;8.644;2023-04-05T09:00:05;99809.19;;;10.70;51.87
40574;BME280;26283;49.020;8.644;2023-04-05T09:02:32;99808.16;;;10.71;52.02
40574;BME280;26283;49.020;8.644;2023-04-05T09:04:58;99807.53;;;10.75;52.07
40574;BME280;26283;49.020;8.644;2023-04-05T09:07:25;99807.34;;;10.77;52.06
40574;BME280;26283;49.020;8.644;2023-04-05T09:09:53;99814.19;;;10.79;51.97
40574;BME280;26283;49.020;8.644;2023-04-05T09:12:20;99810.00;;;10.83;52.08
40574;BME280;26283;49.020;8.644;2023-04-05T09:14:48;99810.63;;;10.85;52.12
40574;BME280;26283;49.020;8.644;2023-04-05T09:17:16;99801.31;;;10.88;52.14
40574;BME280;26283;49.020;8.644;2023-04-05T09:19:41;99804.41;;;10.91;52.11
40574;BME280;26283;49.020;8.644;2023-04-05T09:22:09;99798.00;;;10.92;52.11
40574;BME280;26283;49.020;8.644;2023-04-05T09:24:42;99804.63;;;10.96;52.11
40574;BME280;26283;49.020;8.644;2023-04-05T09:27:12;99797.16;;;10.98;52.02
40574;BME280;26283;49.020;8.644;2023-04-05T09:29:41;99801.94;;;11.03;52.02
40574;BME280;26283;49.020;8.644;2023-04-05T09:32:09;99803.37;;;11.06;51.93
40574;BME280;26283;49.020;8.644;2023-04-05T09:34:35;99800.47;;;11.07;51.83
40574;BME280;26283;49.020;8.644;2023-04-05T09:39:37;99791.53;;;11.13;51.70
40574;BME280;26283;49.020;8.644;2023-04-05T09:42:13;99796.53;;;11.16;51.67
40574;BME280;26283;49.020;8.644;2023-04-05T09:44:59;99796.31;;;11.18;51.57
40574;BME280;26283;49.020;8.644;2023-04-05T09:47:31;99789.47;;;11.22;51.43
40574;BME280;26283;49.020;8.644;2023-04-05T09:49:57;99786.34;;;11.25;51.46
40574;BME280;26283;49.020;8.644;2023-04-05T09:52:25;99789.66;;;11.27;51.45
40574;BME280;26283;49.020;8.644;2023-04-05T09:54:53;99792.97;;;11.29;51.38
40574;BME280;26283;49.020;8.644;2023-04-05T09:57:23;99782.59;;;11.32;51.33
40574;BME280;26283;49.020;8.644;2023-04-05T09:59:50;99777.59;;;11.36;51.31
40574;BME280;26283;49.020;8.644;2023-04-05T10:02:16;99777.19;;;11.39;51.36
40574;BME280;26283;49.020;8.644;2023-04-05T10:04:43;99781.75;;;11.45;51.58
40574;BME280;26283;49.020;8.644;2023-04-05T10:07:11;99784.81;;;11.49;51.22
40574;BME280;26283;49.020;8.644;2023-04-05T10:09:39;99779.84;;;11.52;50.85
40574;BME280;26283;49.020;8.644;2023-04-05T10:12:06;99772.34;;;11.54;50.84
40574;BME280;26283;49.020;8.644;2023-04-05T10:14:31;99778.38;;;11.56;50.89
40574;BME280;26283;49.020;8.644;2023-04-05T10:22:14;99768.41;;;11.63;50.70
40574;BME280;26283;49.020;8.644;2023-04-05T10:24:51;99769.00;;;11.65;50.54
40574;BME280;26283;49.020;8.644;2023-04-05T10:27:40;99765.06;;;11.68;50.44
40574;BME280;26283;49.020;8.644;2023-04-05T10:30:11;99765.44;;;11.72;50.34
40574;BME280;26283;49.020;8.644;2023-04-05T10:35:47;99755.88;;;11.76;50.19
40574;BME280;26283;49.020;8.644;2023-04-05T10:38:25;99758.38;;;11.77;50.09
40574;BME280;26283;49.020;8.644;2023-04-05T10:41:11;99758.81;;;11.81;50.00
40574;BME280;26283;49.020;8.644;2023-04-05T10:43:39;99752.34;;;11.82;49.89
40574;BME280;26283;49.020;8.644;2023-04-05T10:46:06;99755.47;;;11.85;49.82
40574;BME280;26283;49.020;8.644;2023-04-05T10:48:47;99746.31;;;11.86;49.74
40574;BME280;26283;49.020;8.644;2023-04-05T10:51:19;99745.88;;;11.89;49.65
40574;BME280;26283;49.020;8.644;2023-04-05T10:53:45;99742.94;;;11.91;49.61
40574;BME280;26283;49.020;8.644;2023-04-05T10:56:11;99746.25;;;11.93;49.55
40574;BME280;26283;49.020;8.644;2023-04-05T10:58:37;99737.94;;;11.94;49.49
40574;BME280;26283;49.020;8.644;2023-04-05T11:01:05;99744.78;;;11.97;49.42
40574;BME280;26283;49.020;8.644;2023-04-05T11:06:31;99746.03;;;12.01;49.24
40574;BME280;26283;49.020;8.644;2023-04-05T11:09:10;99743.94;;;12.03;49.20
40574;BME280;26283;49.020;8.644;2023-04-05T11:11:40;99744.56;;;12.05;49.17
40574;BME280;26283;49.020;8.644;2023-04-05T11:14:25;99735.41;;;12.06;49.14
40574;BME280;26283;49.020;8.644;2023-04-05T11:16:59;99731.66;;;12.07;49.11
40574;BME280;26283;49.020;8.644;2023-04-05T11:19:47;99731.44;;;12.09;49.07
40574;BME280;26283;49.020;8.644;2023-04-05T11:22:24;99726.66;;;12.11;48.98
40574;BME280;26283;49.020;8.644;2023-04-05T11:25:00;99722.91;;;12.12;48.95
40574;BME280;26283;49.020;8.644;2023-04-05T11:27:32;99724.53;;;12.13;48.94
40574;BME280;26283;49.020;8.644;2023-04-05T11:29:59;99724.31;;;12.14;48.83
40574;BME280;26283;49.020;8.644;2023-04-05T11:32:44;99723.28;;;12.15;48.81
40574;BME280;26283;49.020;8.644;2023-04-05T11:35:17;99724.94;;;12.16;48.80
40574;BME280;26283;49.020;8.644;2023-04-05T11:43:04;99720.75;;;12.20;48.74
40574;BME280;26283;49.020;8.644;2023-04-05T11:45:32;99710.78;;;12.21;48.75
40574;BME280;26283;49.020;8.644;2023-04-05T11:48:09;99711.59;;;12.21;48.74
40574;BME280;26283;49.020;8.644;2023-04-05T11:50:36;99707.03;;;12.22;48.68
40574;BME280;26283;49.020;8.644;2023-04-05T11:53:17;99701.63;;;12.22;48.70
40574;BME280;26283;49.020;8.644;2023-04-05T11:55:46;99696.00;;;12.23;48.66
40574;BME280;26283;49.020;8.644;2023-04-05T12:00:42;99700.97;;;12.26;48.61
40574;BME280;26283;49.020;8.644;2023-04-05T12:03:15;99695.56;;;12.26;48.59
40574;BME280;26283;49.020;8.644;2023-04-05T12:05:51;99688.28;;;12.27;48.58
40574;BME280;26283;49.020;8.644;2023-04-05T12:08:17;99676.66;;;12.26;48.54
40574;BME280;26283;49.020;8.644;2023-04-05T12:10:43;99679.97;;;12.28;48.56
40574;BME280;26283;49.020;8.644;2023-04-05T12:13:09;99679.97;;;12.28;48.55
40574;BME280;26283;49.020;8.644;2023-04-05T12:15:38;99684.34;;;12.29;48.53
40574;BME280;26283;49.020;8.644;2023-04-05T12:18:11;99673.31;;;12.31;48.49
40574;BME280;26283;49.020;8.644;2023-04-05T12:20:37;99679.53;;;12.31;48.47
40574;BME280;26283;49.020;8.644;2023-04-05T12:23:03;99666.03;;;12.31;48.47
40574;BME280;26283;49.020;8.644;2023-04-05T12:25:28;99682.03;;;12.33;48.43
40574;BME280;26283;49.020;8.644;2023-04-05T12:27:54;99673.91;;;12.33;48.41
40574;BME280;26283;49.020;8.644;2023-04-05T12:30:21;99672.03;;;12.33;48.43
40574;BME280;26283;49.020;8.644;2023-04-05T12:32:51;99670.16;;;12.34;48.42
40574;BME280;26283;49.020;8.644;2023-04-05T12:37:43;99659.09;;;12.35;48.45
40574;BME280;26283;49.020;8.644;2023-04-05T12:40:09;99655.34;;;12.36;48.47
40574;BME280;26283;49.020;8.644;2023-04-05T12:42:36;99655.34;;;12.36;48.46
40574;BME280;26283;49.020;8.644;2023-04-05T12:45:10;99648.91;;;12.37;48.45
40574;BME280;26283;49.020;8.644;2023-04-05T12:47:55;99661.38;;;12.39;48.42
40574;BME280;26283;49.020;8.644;2023-04-05T12:50:26;99663.03;;;12.40;48.41
40574;BME280;26283;49.020;8.644;2023-04-05T12:52:53;99645.97;;;12.39;48.39
40574;BME280;26283;49.020;8.644;2023-04-05T12:55:18;99647.62;;;12.40;48.43
40574;BME280;26283;49.020;8.644;2023-04-05T12:57:48;99649.28;;;12.41;48.43
40574;BME280;26283;49.020;8.644;2023-04-05T13:00:13;99640.34;;;12.41;48.44
40574;BME280;26283;49.020;8.644;2023-04-05T13:02:39;99641.19;;;12.41;48.39
40574;BME280;26283;49.020;8.644;2023-04-05T13:05:05;99644.50;;;12.43;48.42
40574;BME280;26283;49.020;8.644;2023-04-05T13:07:30;99646.16;;;12.44;48.43
40574;BME280;26283;49.020;8.644;2023-04-05T13:09:55;99639.91;;;12.44;48.43
40574;BME280;26283;49.020;8.644;2023-04-05T13:12:21;99630.75;;;12.45;48.43
40574;BME280;26283;49.020;8.644;2023-04-05T13:14:46;99626.19;;;12.45;48.45
40574;BME280;26283;49.020;8.644;2023-04-05T13:17:11;99627.00;;;12.46;48.43
40574;BME280;26283;49.020;8.644;2023-04-05T13:19:37;99629.72;;;12.46;48.42
40574;BME280;26283;49.020;8.644;2023-04-05T13:22:02;99624.31;;;12.46;48.45
40574;BME280;26283;49.020;8.644;2023-04-05T13:24:27;99617.84;;;12.47;48.50
40574;BME280;26283;49.020;8.644;2023-04-05T13:26:53;99622.22;;;12.48;48.53
40574;BME280;26283;49.020;8.644;2023-04-05T13:29:18;99614.94;;;12.48;48.59
40574;BME280;26283;49.020;8.644;2023-04-05T13:31:43;99620.34;;;12.48;48.59
40574;BME280;26283;49.020;8.644;2023-04-05T13:34:09;99623.88;;;12.49;48.63
40574;BME280;26283;49.020;8.644;2023-04-05T13:36:35;99615.53;;;12.50;48.63
40574;BME280;26283;49.020;8.644;2023-04-05T13:39:00;99610.75;;;12.52;47.80
40574;BME280;26283;49.020;8.644;2023-04-05T13:41:25;99607.81;;;12.54;47.59
40574;BME280;26283;49.020;8.644;2023-04-05T13:43:51;99604.91;;;12.55;47.65
40574;BME280;26283;49.020;8.644;2023-04-05T13:46:16;99608.41;;;12.56;47.76